sensor_id;sensor_type;location;lat;lon;timestamp;pressure;altitude;pressure_sealevel;temperature;humidity
29467;BME280;60968;37.490;-122.288;2023-06-10T00:00:07;98685.69;;;17.16;68.65
29467;BME280;60968;37.490;-122.288;2023-06-10T00:03:09;98691.09;;;17.32;68.78
29467;BME280;60968;37.490;-122.288;2023-06-10T00:06:11;98681.84;;;17.23;68.44
29467;BME280;60968;37.490;-122.288;2023-06-10T00:09:13;98674.56;;;16.90;70.08
29467;BME280;60968;37.490;-122.288;2023-06-10T00:12:15;98675.28;;;16.94;70.44
29467;BME280;60968;37.490;-122.288;2023-06-10T00:15:18;98680.63;;;16.92;70.22
29467;BME280;60968;37.490;-122.288;2023-06-10T00:18:19;98686.47;;;16.78;71.62
29467;BME280;60968;37.490;-122.288;2023-06-10T00:21:21;98675.72;;;16.83;71.14
29467;BME280;60968;37.490;-122.288;2023-06-10T00:24:23;98667.09;;;16.60;71.88
29467;BME280;60968;37.490;-122.288;2023-06-10T00:27:25;98688.28;;;16.16;74.06
29467;BME280;60968;37.490;-122.288;2023-06-10T00:30:28;98690.28;;;15.89;76.29
29467;BME280;60968;37.490;-122.288;2023-06-10T00:33:30;98694.25;;;15.99;76.53
29467;BME280;60968;37.490;-122.288;2023-06-10T00:36:33;98696.75;;;16.02;76.28
29467;BME280;60968;37.490;-122.288;2023-06-10T00:39:34;98689.56;;;15.85;77.42
29467;BME280;60968;37.490;-122.288;2023-06-10T00:42:35;98680.44;;;15.94;77.15
29467;BME280;60968;37.490;-122.288;2023-06-10T00:45:37;98675.69;;;15.82;78.00
29467;BME280;60968;37.490;-122.288;2023-06-10T00:48:42;98678.53;;;15.75;77.76
29467;BME280;60968;37.490;-122.288;2023-06-10T00:51:44;98677.19;;;15.65;78.19
29467;BME280;60968;37.490;-122.288;2023-06-10T00:54:45;98678.41;;;15.56;78.95
29467;BME280;60968;37.490;-122.288;2023-06-10T00:57:47;98682.25;;;15.25;80.92
29467;BME280;60968;37.490;-122.288;2023-06-10T01:00:48;98673.72;;;15.20;82.21
29467;BME280;60968;37.490;-122.288;2023-06-10T01:03:49;98676.34;;;15.20;82.50
29467;BME280;60968;37.490;-122.288;2023-06-10T01:13:55;98672.06;;;15.40;81.64
29467;BME280;60968;37.490;-122.288;2023-06-10T01:16:56;98679.56;;;15.27;82.43
29467;BME280;60968;37.490;-122.288;2023-06-10T01:19:58;98678.16;;;15.18;83.30
29467;BME280;60968;37.490;-122.288;2023-06-10T01:23:00;98676.56;;;15.14;83.55
29467;BME280;60968;37.490;-122.288;2023-06-10T01:26:09;98679.75;;;15.22;82.58
29467;BME280;60968;37.490;-122.288;2023-06-10T01:29:41;98676.72;;;15.33;81.95
29467;BME280;60968;37.490;-122.288;2023-06-10T01:32:46;98680.13;;;15.57;80.60
29467;BME280;60968;37.490;-122.288;2023-06-10T01:35:48;98684.41;;;15.60;79.76
29467;BME280;60968;37.490;-122.288;2023-06-10T01:38:50;98683.31;;;15.66;79.46
29467;BME280;60968;37.490;-122.288;2023-06-10T01:41:54;98686.84;;;15.42;80.07
29467;BME280;60968;37.490;-122.288;2023-06-10T01:44:55;98682.13;;;15.51;80.06
29467;BME280;60968;37.490;-122.288;2023-06-10T01:47:55;98690.81;;;15.07;81.56
29467;BME280;60968;37.490;-122.288;2023-06-10T01:50:58;98679.69;;;15.00;81.50
29467;BME280;60968;37.490;-122.288;2023-06-10T01:53:59;98679.75;;;14.99;82.27
29467;BME280;60968;37.490;-122.288;2023-06-10T01:57:01;98670.28;;;14.71;83.41
29467;BME280;60968;37.490;-122.288;2023-06-10T02:00:02;98666.56;;;14.51;84.91
29467;BME280;60968;37.490;-122.288;2023-06-10T02:03:03;98680.19;;;14.37;85.35
29467;BME280;60968;37.490;-122.288;2023-06-10T02:06:06;98673.94;;;14.15;87.55
29467;BME280;60968;37.490;-122.288;2023-06-10T02:09:07;98672.63;;;14.28;87.64
29467;BME280;60968;37.490;-122.288;2023-06-10T02:12:08;98673.66;;;14.24;87.44
29467;BME280;60968;37.490;-122.288;2023-06-10T02:15:09;98677.69;;;14.07;88.01
29467;BME280;60968;37.490;-122.288;2023-06-10T02:18:11;98691.75;;;13.78;89.90
29467;BME280;60968;37.490;-122.288;2023-06-10T02:21:12;98693.69;;;13.73;90.35
29467;BME280;60968;37.490;-122.288;2023-06-10T02:24:14;98699.50;;;13.54;91.83
29467;BME280;60968;37.490;-122.288;2023-06-10T02:27:16;98697.25;;;13.42;92.39
29467;BME280;60968;37.490;-122.288;2023-06-10T02:30:17;98694.44;;;13.18;93.96
29467;BME280;60968;37.490;-122.288;2023-06-10T02:33:18;98689.81;;;12.98;95.20
29467;BME280;60968;37.490;-122.288;2023-06-10T02:36:20;98695.16;;;12.94;96.06
29467;BME280;60968;37.490;-122.288;2023-06-10T02:39:21;98690.34;;;12.80;97.31
29467;BME280;60968;37.490;-122.288;2023-06-10T02:42:22;98698.28;;;12.75;98.37
29467;BME280;60968;37.490;-122.288;2023-06-10T02:45:23;98691.72;;;12.62;100.00
29467;BME280;60968;37.490;-122.288;2023-06-10T02:48:24;98701.56;;;12.52;100.00
29467;BME280;60968;37.490;-122.288;2023-06-10T02:51:27;98702.31;;;12.56;100.00
29467;BME280;60968;37.490;-122.288;2023-06-10T02:54:29;98698.63;;;12.63;100.00
29467;BME280;60968;37.490;-122.288;2023-06-10T02:57:30;98710.38;;;12.48;100.00
29467;BME280;60968;37.490;-122.288;2023-06-10T03:00:33;98709.88;;;12.33;100.00
29467;BME280;60968;37.490;-122.288;2023-06-10T03:03:37;98713.44;;;12.31;100.00
29467;BME280;60968;37.490;-122.288;2023-06-10T03:06:39;98711.94;;;12.21;100.00
29467;BME280;60968;37.490;-122.288;2023-06-10T03:09:40;98711.53;;;12.36;100.00
29467;BME280;60968;37.490;-122.288;2023-06-10T03:12:41;98713.97;;;12.09;100.00
29467;BME280;60968;37.490;-122.288;2023-06-10T03:15:42;98713.31;;;12.01;100.00
29467;BME280;60968;37.490;-122.288;2023-06-10T03:18:43;98704.81;;;11.91;100.00
29467;BME280;60968;37.490;-122.288;2023-06-10T03:21:44;98705.88;;;11.82;100.00
29467;BME280;60968;37.490;-122.288;2023-06-10T03:24:45;98720.28;;;12.00;100.00
29467;BME280;60968;37.490;-122.288;2023-06-10T03:27:47;98714.22;;;12.00;100.00
29467;BME280;60968;37.490;-122.288;2023-06-10T03:30:49;98714.72;;;12.14;100.00
29467;BME280;60968;37.490;-122.288;2023-06-10T03:33:50;98700.22;;;12.03;100.00
29467;BME280;60968;37.490;-122.288;2023-06-10T03:36:51;98703.81;;;11.98;100.00
29467;BME280;60968;37.490;-122.288;2023-06-10T03:39:53;98704.34;;;11.74;100.00
29467;BME280;60968;37.490;-122.288;2023-06-10T03:42:54;98718.03;;;11.83;100.00
29467;BME280;60968;37.490;-122.288;2023-06-10T03:45:57;98715.56;;;11.79;100.00
29467;BME280;60968;37.490;-122.288;2023-06-10T03:48:58;98712.59;;;11.57;100.00
29467;BME280;60968;37.490;-122.288;2023-06-10T03:51:59;98721.44;;;11.49;100.00
29467;BME280;60968;37.490;-122.288;2023-06-10T03:55:00;98717.38;;;11.36;100.00
29467;BME280;60968;37.490;-122.288;2023-06-10T03:58:01;98719.88;;;11.42;100.00
29467;BME280;60968;37.490;-122.288;2023-06-10T04:01:03;98718.59;;;11.59;100.00
29467;BME280;60968;37.490;-122.288;2023-06-10T04:04:05;98727.31;;;11.59;100.00
29467;BME280;60968;37.490;-122.288;2023-06-10T04:07:06;98728.19;;;11.58;100.00
29467;BME280;60968;37.490;-122.288;2023-06-10T04:10:08;98735.25;;;11.55;100.00
29467;BME280;60968;37.490;-122.288;2023-06-10T04:13:11;98731.00;;;11.50;100.00
29467;BME280;60968;37.490;-122.288;2023-06-10T04:16:13;98738.31;;;11.33;100.00
29467;BME280;60968;37.490;-122.288;2023-06-10T04:19:14;98729.38;;;11.45;100.00
29467;BME280;60968;37.490;-122.288;2023-06-10T04:22:15;98736.75;;;11.26;100.00
29467;BME280;60968;37.490;-122.288;2023-06-10T04:25:16;98741.28;;;11.16;100.00
29467;BME280;60968;37.490;-122.288;2023-06-10T04:28:17;98744.69;;;11.20;100.00
29467;BME280;60968;37.490;-122.288;2023-06-10T04:31:20;98743.03;;;11.15;100.00
29467;BME280;60968;37.490;-122.288;2023-06-10T04:34:22;98742.13;;;11.16;100.00
29467;BME280;60968;37.490;-122.288;2023-06-10T04:37:23;98741.34;;;11.13;100.00
29467;BME280;60968;37.490;-122.288;2023-06-10T04:40:24;98747.25;;;11.23;100.00
29467;BME280;60968;37.490;-122.288;2023-06-10T04:43:24;98738.56;;;11.21;100.00
29467;BME280;60968;37.490;-122.288;2023-06-10T04:46:25;98739.66;;;11.10;100.00
29467;BME280;60968;37.490;-122.288;2023-06-10T04:49:26;98747.66;;;11.03;100.00
29467;BME280;60968;37.490;-122.288;2023-06-10T04:52:29;98749.41;;;11.01;100.00
29467;BME280;60968;37.490;-122.288;2023-06-10T04:55:30;98752.84;;;11.04;100.00
29467;BME280;60968;37.490;-122.288;2023-06-10T04:58:32;98757.19;;;11.04;100.00
29467;BME280;60968;37.490;-122.288;2023-06-10T05:01:33;98758.81;;;11.09;100.00
29467;BME280;60968;37.490;-122.288;2023-06-10T05:04:33;98765.91;;;11.01;100.00
29467;BME280;60968;37.490;-122.288;2023-06-10T05:07:34;98762.50;;;10.99;100.00
29467;BME280;60968;37.490;-122.288;2023-06-10T05:10:36;98772.16;;;10.92;100.00
29467;BME280;60968;37.490;-122.288;2023-06-10T05:13:41;98767.03;;;10.89;100.00
29467;BME280;60968;37.490;-122.288;2023-06-10T05:16:43;98772.13;;;10.94;100.00
29467;BME280;60968;37.490;-122.288;2023-06-10T05:19:44;98771.19;;;10.98;100.00
29467;BME280;60968;37.490;-122.288;2023-06-10T05:22:46;98771.19;;;10.98;100.00
29467;BME280;60968;37.490;-122.288;2023-06-10T05:25:46;98767.56;;;11.05;100.00
29467;BME280;60968;37.490;-122.288;2023-06-10T05:28:48;98767.59;;;11.04;100.00
29467;BME280;60968;37.490;-122.288;2023-06-10T05:31:54;98764.09;;;11.06;100.00
29467;BME280;60968;37.490;-122.288;2023-06-10T05:34:58;98759.41;;;11.22;100.00
29467;BME280;60968;37.490;-122.288;2023-06-10T05:37:59;98763.06;;;11.13;100.00
29467;BME280;60968;37.490;-122.288;2023-06-10T05:40:59;98759.63;;;11.11;100.00
29467;BME280;60968;37.490;-122.288;2023-06-10T05:44:00;98765.59;;;11.16;100.00
29467;BME280;60968;37.490;-122.288;2023-06-10T05:47:03;98759.50;;;11.18;100.00
29467;BME280;60968;37.490;-122.288;2023-06-10T05:50:04;98754.50;;;11.08;100.00
29467;BME280;60968;37.490;-122.288;2023-06-10T05:53:05;98757.56;;;10.84;100.00
29467;BME280;60968;37.490;-122.288;2023-06-10T05:56:10;98747.75;;;10.96;100.00
29467;BME280;60968;37.490;-122.288;2023-06-10T05:59:10;98753.84;;;10.97;100.00
29467;BME280;60968;37.490;-122.288;2023-06-10T06:02:14;98753.97;;;10.91;100.00
29467;BME280;60968;37.490;-122.288;2023-06-10T06:05:15;98745.34;;;10.86;100.00
29467;BME280;60968;37.490;-122.288;2023-06-10T06:08:16;98741.91;;;10.85;100.00
29467;BME280;60968;37.490;-122.288;2023-06-10T06:11:18;98750.59;;;10.84;100.00
29467;BME280;60968;37.490;-122.288;2023-06-10T06:14:19;98753.31;;;10.79;100.00
29467;BME280;60968;37.490;-122.288;2023-06-10T06:17:21;98743.00;;;10.73;100.00
29467;BME280;60968;37.490;-122.288;2023-06-10T06:20:23;98737.91;;;10.67;100.00
29467;BME280;60968;37.490;-122.288;2023-06-10T06:23:24;98737.09;;;10.65;100.00
29467;BME280;60968;37.490;-122.288;2023-06-10T06:26:25;98743.28;;;10.59;100.00
29467;BME280;60968;37.490;-122.288;2023-06-10T06:29:27;98738.09;;;10.58;100.00
29467;BME280;60968;37.490;-122.288;2023-06-10T06:32:29;98734.53;;;10.62;100.00
29467;BME280;60968;37.490;-122.288;2023-06-10T06:35:33;98732.00;;;10.57;100.00
29467;BME280;60968;37.490;-122.288;2023-06-10T06:38:34;98734.59;;;10.57;100.00
29467;BME280;60968;37.490;-122.288;2023-06-10T06:41:36;98741.47;;;10.61;100.00
29467;BME280;60968;37.490;-122.288;2023-06-10T06:44:37;98745.06;;;10.56;100.00
29467;BME280;60968;37.490;-122.288;2023-06-10T06:47:38;98751.22;;;10.52;100.00
29467;BME280;60968;37.490;-122.288;2023-06-10T06:50:42;98747.78;;;10.50;100.00
29467;BME280;60968;37.490;-122.288;2023-06-10T06:53:43;98755.66;;;10.46;100.00
29467;BME280;60968;37.490;-122.288;2023-06-10T06:56:44;98746.88;;;10.52;100.00
29467;BME280;60968;37.490;-122.288;2023-06-10T06:59:45;98741.75;;;10.46;100.00
29467;BME280;60968;37.490;-122.288;2023-06-10T07:02:46;98746.84;;;10.54;100.00
29467;BME280;60968;37.490;-122.288;2023-06-10T07:05:47;98739.78;;;10.59;100.00
29467;BME280;60968;37.490;-122.288;2023-06-10T07:08:49;98740.75;;;10.53;100.00
29467;BME280;60968;37.490;-122.288;2023-06-10T07:11:50;98733.19;;;10.41;100.00
29467;BME280;60968;37.490;-122.288;2023-06-10T07:14:52;98730.53;;;10.44;100.00
29467;BME280;60968;37.490;-122.288;2023-06-10T07:17:56;98720.06;;;10.45;100.00
29467;BME280;60968;37.490;-122.288;2023-06-10T07:20:56;98722.53;;;10.53;100.00
29467;BME280;60968;37.490;-122.288;2023-06-10T07:23:57;98726.00;;;10.54;100.00
29467;BME280;60968;37.490;-122.288;2023-06-10T07:26:58;98720.84;;;10.51;100.00
29467;BME280;60968;37.490;-122.288;2023-06-10T07:30:00;98709.69;;;10.44;100.00
29467;BME280;60968;37.490;-122.288;2023-06-10T07:33:02;98710.25;;;10.60;100.00
29467;BME280;60968;37.490;-122.288;2023-06-10T07:36:06;98709.56;;;10.50;100.00
29467;BME280;60968;37.490;-122.288;2023-06-10T07:39:08;98708.66;;;10.53;100.00
29467;BME280;60968;37.490;-122.288;2023-06-10T07:42:09;98714.94;;;10.42;100.00
29467;BME280;60968;37.490;-122.288;2023-06-10T07:45:10;98710.53;;;10.44;100.00
29467;BME280;60968;37.490;-122.288;2023-06-10T07:48:11;98703.72;;;10.37;100.00
29467;BME280;60968;37.490;-122.288;2023-06-10T07:51:12;98700.28;;;10.37;100.00
29467;BME280;60968;37.490;-122.288;2023-06-10T07:54:16;98703.72;;;10.37;100.00
29467;BME280;60968;37.490;-122.288;2023-06-10T07:57:18;98703.72;;;10.37;100.00
29467;BME280;60968;37.490;-122.288;2023-06-10T08:00:20;98702.00;;;10.36;100.00
29467;BME280;60968;37.490;-122.288;2023-06-10T08:03:21;98702.03;;;10.33;100.00
29467;BME280;60968;37.490;-122.288;2023-06-10T08:06:23;98699.19;;;10.47;100.00
29467;BME280;60968;37.490;-122.288;2023-06-10T08:09:24;98702.72;;;10.44;100.00
29467;BME280;60968;37.490;-122.288;2023-06-10T08:12:29;98706.06;;;10.51;100.00
29467;BME280;60968;37.490;-122.288;2023-06-10T08:15:31;98710.47;;;10.47;100.00
29467;BME280;60968;37.490;-122.288;2023-06-10T08:18:32;98715.88;;;10.38;100.00
29467;BME280;60968;37.490;-122.288;2023-06-10T08:21:35;98709.75;;;10.41;100.00
29467;BME280;60968;37.490;-122.288;2023-06-10T08:24:38;98695.88;;;10.39;100.00
29467;BME280;60968;37.490;-122.288;2023-06-10T08:27:38;98706.38;;;10.34;100.00
29467;BME280;60968;37.490;-122.288;2023-06-10T08:30:41;98702.03;;;10.33;100.00
29467;BME280;60968;37.490;-122.288;2023-06-10T08:33:42;98694.94;;;10.43;100.00
29467;BME280;60968;37.490;-122.288;2023-06-10T08:36:43;98690.59;;;10.42;100.00
29467;BME280;60968;37.490;-122.288;2023-06-10T08:39:44;98688.06;;;10.39;100.00
29467;BME280;60968;37.490;-122.288;2023-06-10T08:46:08;98674.94;;;10.45;100.00
29467;BME280;60968;37.490;-122.288;2023-06-10T08:49:09;98678.97;;;10.60;100.00
29467;BME280;60968;37.490;-122.288;2023-06-10T08:52:15;98675.44;;;10.64;100.00
29467;BME280;60968;37.490;-122.288;2023-06-10T08:55:43;98675.28;;;10.70;100.00
29467;BME280;60968;37.490;-122.288;2023-06-10T08:58:47;98672.53;;;10.79;100.00
29467;BME280;60968;37.490;-122.288;2023-06-10T09:01:49;98669.13;;;10.74;100.00
29467;BME280;60968;37.490;-122.288;2023-06-10T09:04:51;98659.59;;;10.75;100.00
29467;BME280;60968;37.490;-122.288;2023-06-10T09:07:54;98670.69;;;10.85;100.00
29467;BME280;60968;37.490;-122.288;2023-06-10T09:10:58;98667.84;;;10.97;100.00
29467;BME280;60968;37.490;-122.288;2023-06-10T09:13:59;98662.69;;;10.92;100.00
29467;BME280;60968;37.490;-122.288;2023-06-10T09:17:00;98662.63;;;10.97;100.00
29467;BME280;60968;37.490;-122.288;2023-06-10T09:20:02;98659.25;;;10.92;100.00
29467;BME280;60968;37.490;-122.288;2023-06-10T09:23:03;98650.50;;;10.94;100.00
29467;BME280;60968;37.490;-122.288;2023-06-10T09:26:09;98636.66;;;10.91;100.00
29467;BME280;60968;37.490;-122.288;2023-06-10T09:29:11;98635.84;;;10.89;100.00
29467;BME280;60968;37.490;-122.288;2023-06-10T09:32:12;98640.53;;;10.71;100.00
29467;BME280;60968;37.490;-122.288;2023-06-10T09:35:14;98649.19;;;10.73;100.00
29467;BME280;60968;37.490;-122.288;2023-06-10T09:38:20;98655.22;;;10.75;100.00
29467;BME280;60968;37.490;-122.288;2023-06-10T09:41:21;98634.56;;;10.68;100.00
29467;BME280;60968;37.490;-122.288;2023-06-10T09:44:22;98635.22;;;10.77;100.00
29467;BME280;60968;37.490;-122.288;2023-06-10T09:47:24;98635.16;;;10.80;100.00
29467;BME280;60968;37.490;-122.288;2023-06-10T09:50:27;98639.47;;;10.81;100.00
29467;BME280;60968;37.490;-122.288;2023-06-10T09:53:28;98641.31;;;10.76;100.00
29467;BME280;60968;37.490;-122.288;2023-06-10T09:56:35;98641.34;;;10.75;100.00
29467;BME280;60968;37.490;-122.288;2023-06-10T09:59:37;98637.06;;;10.72;100.00
29467;BME280;60968;37.490;-122.288;2023-06-10T10:02:50;98624.19;;;10.63;100.00
29467;BME280;60968;37.490;-122.288;2023-06-10T10:05:58;98630.38;;;10.59;100.00
29467;BME280;60968;37.490;-122.288;2023-06-10T10:08:59;98631.34;;;10.53;100.00
29467;BME280;60968;37.490;-122.288;2023-06-10T10:12:01;98638.41;;;10.48;100.00
29467;BME280;60968;37.490;-122.288;2023-06-10T10:15:08;98633.34;;;10.40;100.00
29467;BME280;60968;37.490;-122.288;2023-06-10T10:18:10;98631.72;;;10.33;100.00
29467;BME280;60968;37.490;-122.288;2023-06-10T10:21:16;98623.03;;;10.36;100.00
29467;BME280;60968;37.490;-122.288;2023-06-10T10:24:26;98621.47;;;10.25;100.00
29467;BME280;60968;37.490;-122.288;2023-06-10T10:27:36;98619.06;;;10.15;100.00
29467;BME280;60968;37.490;-122.288;2023-06-10T10:30:53;98624.19;;;10.18;100.00
29467;BME280;60968;37.490;-122.288;2023-06-10T10:33:58;98612.06;;;10.17;100.00
29467;BME280;60968;37.490;-122.288;2023-06-10T10:37:00;98607.06;;;10.06;100.00
29467;BME280;60968;37.490;-122.288;2023-06-10T10:40:02;98592.34;;;10.05;100.00
29467;BME280;60968;37.490;-122.288;2023-06-10T10:43:04;98597.56;;;10.03;100.00
29467;BME280;60968;37.490;-122.288;2023-06-10T10:46:15;98607.19;;;9.98;100.00
29467;BME280;60968;37.490;-122.288;2023-06-10T10:49:18;98608.13;;;9.94;100.00
29467;BME280;60968;37.490;-122.288;2023-06-10T10:52:20;98610.75;;;9.92;100.00
29467;BME280;60968;37.490;-122.288;2023-06-10T10:55:23;98608.97;;;9.96;100.00
29467;BME280;60968;37.490;-122.288;2023-06-10T10:58:25;98603.78;;;9.96;100.00
29467;BME280;60968;37.490;-122.288;2023-06-10T11:01:43;98589.84;;;9.97;100.00
29467;BME280;60968;37.490;-122.288;2023-06-10T11:04:48;98597.72;;;9.94;100.00
29467;BME280;60968;37.490;-122.288;2023-06-10T11:07:55;98592.41;;;10.02;100.00
29467;BME280;60968;37.490;-122.288;2023-06-10T11:10:58;98597.53;;;10.05;100.00
29467;BME280;60968;37.490;-122.288;2023-06-10T11:14:07;98592.44;;;10.00;100.00
29467;BME280;60968;37.490;-122.288;2023-06-10T11:17:18;98588.81;;;10.07;100.00
29467;BME280;60968;37.490;-122.288;2023-06-10T11:20:43;98590.41;;;10.15;100.00
29467;BME280;60968;37.490;-122.288;2023-06-10T11:23:44;98587.81;;;10.15;100.00
29467;BME280;60968;37.490;-122.288;2023-06-10T11:26:45;98578.34;;;10.10;100.00
29467;BME280;60968;37.490;-122.288;2023-06-10T11:33:04;98574.25;;;9.99;100.00
29467;BME280;60968;37.490;-122.288;2023-06-10T11:36:08;98576.00;;;9.96;100.00
29467;BME280;60968;37.490;-122.288;2023-06-10T11:39:10;98576.75;;;10.03;100.00
29467;BME280;60968;37.490;-122.288;2023-06-10T11:42:11;98575.56;;;10.20;100.00
29467;BME280;60968;37.490;-122.288;2023-06-10T11:45:15;98583.25;;;10.26;100.00
29467;BME280;60968;37.490;-122.288;2023-06-10T11:48:16;98579.66;;;10.32;100.00
29467;BME280;60968;37.490;-122.288;2023-06-10T11:51:17;98571.88;;;10.30;100.00
29467;BME280;60968;37.490;-122.288;2023-06-10T11:54:19;98570.22;;;10.26;100.00
29467;BME280;60968;37.490;-122.288;2023-06-10T11:57:19;98565.16;;;10.20;100.00
29467;BME280;60968;37.490;-122.288;2023-06-10T12:00:20;98560.84;;;10.19;100.00
29467;BME280;60968;37.490;-122.288;2023-06-10T12:03:21;98559.31;;;10.08;100.00
29467;BME280;60968;37.490;-122.288;2023-06-10T12:06:22;98561.81;;;10.13;100.00
29467;BME280;60968;37.490;-122.288;2023-06-10T12:09:25;98558.28;;;10.16;100.00
29467;BME280;60968;37.490;-122.288;2023-06-10T12:12:27;98566.09;;;10.16;100.00
29467;BME280;60968;37.490;-122.288;2023-06-10T12:15:28;98568.59;;;10.20;100.00
29467;BME280;60968;37.490;-122.288;2023-06-10T12:18:29;98562.53;;;10.21;100.00
29467;BME280;60968;37.490;-122.288;2023-06-10T12:21:31;98561.41;;;10.33;100.00
29467;BME280;60968;37.490;-122.288;2023-06-10T12:24:32;98562.25;;;10.37;100.00
29467;BME280;60968;37.490;-122.288;2023-06-10T12:27:35;98571.81;;;10.35;100.00
29467;BME280;60968;37.490;-122.288;2023-06-10T12:30:36;98576.16;;;10.36;100.00
29467;BME280;60968;37.490;-122.288;2023-06-10T12:33:37;98573.66;;;10.29;100.00
29467;BME280;60968;37.490;-122.288;2023-06-10T12:36:47;98564.31;;;10.18;100.00
29467;BME280;60968;37.490;-122.288;2023-06-10T12:39:51;98567.75;;;10.18;100.00
29467;BME280;60968;37.490;-122.288;2023-06-10T12:42:52;98572.00;;;10.25;100.00
29467;BME280;60968;37.490;-122.288;2023-06-10T12:45:54;98575.31;;;10.35;100.00
29467;BME280;60968;37.490;-122.288;2023-06-10T12:48:56;98575.25;;;10.37;100.00
29467;BME280;60968;37.490;-122.288;2023-06-10T12:51:57;98569.88;;;10.44;100.00
29467;BME280;60968;37.490;-122.288;2023-06-10T12:54:58;98557.75;;;10.45;100.00
29467;BME280;60968;37.490;-122.288;2023-06-10T12:58:01;98555.09;;;10.46;100.00
29467;BME280;60968;37.490;-122.288;2023-06-10T13:01:02;98557.56;;;10.53;100.00
29467;BME280;60968;37.490;-122.288;2023-06-10T13:04:05;98564.44;;;10.57;100.00
29467;BME280;60968;37.490;-122.288;2023-06-10T13:07:06;98568.75;;;10.58;100.00
29467;BME280;60968;37.490;-122.288;2023-06-10T13:10:07;98571.22;;;10.64;100.00
29467;BME280;60968;37.490;-122.288;2023-06-10T13:13:08;98568.81;;;10.55;100.00
29467;BME280;60968;37.490;-122.288;2023-06-10T13:16:09;98569.72;;;10.54;100.00
29467;BME280;60968;37.490;-122.288;2023-06-10T13:19:11;98572.25;;;10.57;100.00
29467;BME280;60968;37.490;-122.288;2023-06-10T13:22:13;98581.38;;;10.76;100.00
29467;BME280;60968;37.490;-122.288;2023-06-10T13:25:14;98576.25;;;10.73;100.00
29467;BME280;60968;37.490;-122.288;2023-06-10T13:28:15;98575.41;;;10.71;100.00
29467;BME280;60968;37.490;-122.288;2023-06-10T13:31:16;98580.53;;;10.74;100.00
29467;BME280;60968;37.490;-122.288;2023-06-10T13:34:16;98575.94;;;10.86;100.00
29467;BME280;60968;37.490;-122.288;2023-06-10T13:37:17;98571.72;;;10.80;100.00
29467;BME280;60968;37.490;-122.288;2023-06-10T13:40:18;98565.47;;;10.89;100.00
29467;BME280;60968;37.490;-122.288;2023-06-10T13:43:19;98561.19;;;10.86;100.00
29467;BME280;60968;37.490;-122.288;2023-06-10T13:46:22;98560.25;;;10.89;100.00
29467;BME280;60968;37.490;-122.288;2023-06-10T13:49:23;98568.03;;;10.90;100.00
29467;BME280;60968;37.490;-122.288;2023-06-10T13:52:24;98576.94;;;10.80;100.00
29467;BME280;60968;37.490;-122.288;2023-06-10T13:55:25;98577.13;;;10.72;100.00
29467;BME280;60968;37.490;-122.288;2023-06-10T13:58:25;98584.09;;;10.70;100.00
29467;BME280;60968;37.490;-122.288;2023-06-10T14:01:29;98594.34;;;10.79;100.00
29467;BME280;60968;37.490;-122.288;2023-06-10T14:04:30;98589.09;;;10.81;100.00
29467;BME280;60968;37.490;-122.288;2023-06-10T14:07:31;98587.47;;;10.75;100.00
29467;BME280;60968;37.490;-122.288;2023-06-10T14:10:32;98594.44;;;10.75;100.00
29467;BME280;60968;37.490;-122.288;2023-06-10T14:13:33;98589.56;;;10.59;100.00
29467;BME280;60968;37.490;-122.288;2023-06-10T14:16:34;98593.72;;;10.68;100.00
29467;BME280;60968;37.490;-122.288;2023-06-10T14:19:34;98597.28;;;10.64;100.00
29467;BME280;60968;37.490;-122.288;2023-06-10T14:22:35;98599.00;;;10.65;100.00
29467;BME280;60968;37.490;-122.288;2023-06-10T14:25:36;98601.59;;;10.65;100.00
29467;BME280;60968;37.490;-122.288;2023-06-10T14:28:37;98595.31;;;10.74;100.00
29467;BME280;60968;37.490;-122.288;2023-06-10T14:31:40;98600.56;;;10.72;100.00
29467;BME280;60968;37.490;-122.288;2023-06-10T14:34:41;98604.94;;;10.70;100.00
29467;BME280;60968;37.490;-122.288;2023-06-10T14:37:42;98606.38;;;10.85;100.00
29467;BME280;60968;37.490;-122.288;2023-06-10T14:40:44;98599.41;;;10.87;100.00
29467;BME280;60968;37.490;-122.288;2023-06-10T14:43:46;98599.47;;;10.82;100.00
29467;BME280;60968;37.490;-122.288;2023-06-10T14:46:47;98599.38;;;10.89;100.00
29467;BME280;60968;37.490;-122.288;2023-06-10T14:49:48;98603.50;;;10.97;100.00
29467;BME280;60968;37.490;-122.288;2023-06-10T14:52:50;98605.94;;;11.05;100.00
29467;BME280;60968;37.490;-122.288;2023-06-10T14:55:51;98602.59;;;11.00;100.00
29467;BME280;60968;37.490;-122.288;2023-06-10T14:58:52;98616.53;;;10.97;100.00
29467;BME280;60968;37.490;-122.288;2023-06-10T15:01:53;98617.47;;;10.95;100.00
29467;BME280;60968;37.490;-122.288;2023-06-10T15:04:54;98624.59;;;10.87;100.00
29467;BME280;60968;37.490;-122.288;2023-06-10T15:07:55;98625.22;;;10.98;100.00
29467;BME280;60968;37.490;-122.288;2023-06-10T15:10:56;98630.00;;;11.16;100.00
29467;BME280;60968;37.490;-122.288;2023-06-10T15:13:57;98628.72;;;11.35;100.00
29467;BME280;60968;37.490;-122.288;2023-06-10T15:17:00;98624.28;;;11.40;100.00
29467;BME280;60968;37.490;-122.288;2023-06-10T15:20:00;98631.78;;;11.54;100.00
29467;BME280;60968;37.490;-122.288;2023-06-10T15:23:01;98633.16;;;11.67;100.00
29467;BME280;60968;37.490;-122.288;2023-06-10T15:26:02;98634.06;;;11.67;100.00
29467;BME280;60968;37.490;-122.288;2023-06-10T15:29:03;98635.88;;;11.64;100.00
29467;BME280;60968;37.490;-122.288;2023-06-10T15:32:05;98627.03;;;11.70;100.00